Terminal Aerodrome Forecast
Issued by NWS Norman, OK

Home | Current Version | Previous Version | Text Only | Print | Product List | Glossary On
Versions: 1 2 3 4 5 6 7 8 9 10 11 12 13 14 15 16 17 18 19 20 21 22 23 24 25
000
FTUS44 KOUN 051124
TAFOKC
TAF
KOKC 051124Z 0512/0612 15008KT P6SM FEW100 SCT250
     FM051600 19011G16KT P6SM SCT050 SCT200
     FM060100 16008KT P6SM SCT250=

USA.gov is the U.S. government's official web portal to all federal, state and local government web resources and services.